createdAt,value
2023-01-05T00:01:54.960Z,96.41
2023-01-05T00:04:22.197Z,96.16
2023-01-05T00:06:49.128Z,96.40
2023-01-05T00:09:18.443Z,95.71
2023-01-05T00:12:03.749Z,95.76
2023-01-05T00:14:51.360Z,95.86
2023-01-05T00:17:41.479Z,95.83
2023-01-05T00:20:34.929Z,95.87
2023-01-05T00:23:01.749Z,96.24
2023-01-05T00:25:36.972Z,96.25
2023-01-05T00:28:04.478Z,96.32
2023-01-05T00:30:41.235Z,96.15
2023-01-05T00:33:14.063Z,95.86
2023-01-05T00:35:41.560Z,95.74
2023-01-05T00:38:09.402Z,95.61
2023-01-05T00:40:36.810Z,95.32
2023-01-05T00:43:04.256Z,94.86
2023-01-05T00:45:31.142Z,94.83
2023-01-05T00:47:58.085Z,94.87
2023-01-05T00:50:24.906Z,95.17
2023-01-05T00:52:52.077Z,94.77
2023-01-05T00:55:19.053Z,94.64
2023-01-05T00:57:46.638Z,94.81
2023-01-05T01:00:18.834Z,94.81
2023-01-05T01:02:46.225Z,94.60
2023-01-05T01:05:13.323Z,94.74
2023-01-05T01:07:40.489Z,94.65
2023-01-05T01:10:09.235Z,94.49
2023-01-05T01:12:36.903Z,94.32
2023-01-05T01:15:05.340Z,94.06
2023-01-05T01:17:33.236Z,94.32
2023-01-05T01:20:00.377Z,93.95
2023-01-05T01:22:27.427Z,94.00
2023-01-05T01:24:54.275Z,93.64
2023-01-05T01:27:21.089Z,93.25
2023-01-05T01:29:48.656Z,93.26
2023-01-05T01:32:15.513Z,93.35
2023-01-05T01:37:08.377Z,92.85
2023-01-05T01:39:35.469Z,92.66
2023-01-05T01:42:02.319Z,92.98
2023-01-05T01:44:47.836Z,93.15
2023-01-05T01:47:18.767Z,93.00
2023-01-05T01:49:45.738Z,92.85
2023-01-05T01:52:12.729Z,93.10
2023-01-05T01:54:39.854Z,93.27
2023-01-05T01:57:10.220Z,93.08
2023-01-05T01:59:37.176Z,93.55
2023-01-05T02:02:04.982Z,93.37
2023-01-05T02:04:33.809Z,93.16
2023-01-05T02:07:02.478Z,93.64
2023-01-05T02:09:29.843Z,93.75
2023-01-05T02:12:14.770Z,93.74
2023-01-05T02:15:12.600Z,94.10
2023-01-05T02:18:10.300Z,93.95
2023-01-05T02:21:32.340Z,94.03
2023-01-05T02:24:18.820Z,94.34
2023-01-05T02:27:05.872Z,94.04
2023-01-05T02:29:56.098Z,94.26
2023-01-05T02:32:51.384Z,94.59
2023-01-05T02:35:30.273Z,94.49
2023-01-05T02:38:23.265Z,94.61
2023-01-05T02:40:57.127Z,94.70
2023-01-05T02:43:24.632Z,95.27
2023-01-05T02:45:51.434Z,95.89
2023-01-05T02:48:18.992Z,95.87
2023-01-05T02:51:05.131Z,95.87
2023-01-05T02:53:40.941Z,95.82
2023-01-05T02:56:17.749Z,95.50
2023-01-05T02:58:59.022Z,95.78
2023-01-05T03:01:40.733Z,95.60
2023-01-05T03:04:21.519Z,95.66
2023-01-05T03:07:00.178Z,95.98
2023-01-05T03:09:36.884Z,95.60
2023-01-05T03:12:53.952Z,95.53
2023-01-05T03:15:32.938Z,95.19
2023-01-05T03:18:10.910Z,94.88
2023-01-05T03:20:43.618Z,94.72
2023-01-05T03:23:31.524Z,94.78
2023-01-05T03:26:17.810Z,94.76
2023-01-05T03:29:09.837Z,94.21
2023-01-05T03:32:02.593Z,94.29
2023-01-05T03:35:17.972Z,94.00
2023-01-05T03:38:22.059Z,93.82
2023-01-05T03:40:52.862Z,93.96
2023-01-05T03:43:21.482Z,93.91
2023-01-05T03:45:54.787Z,94.43
2023-01-05T03:48:24.628Z,94.21
2023-01-05T03:50:51.783Z,94.47
2023-01-05T03:53:19.054Z,94.66
2023-01-05T03:55:46.058Z,94.42
2023-01-05T03:58:13.232Z,94.66
2023-01-05T04:00:40.031Z,94.44
2023-01-05T04:03:06.971Z,94.67
2023-01-05T04:05:33.832Z,94.51
2023-01-05T04:08:00.856Z,94.42
2023-01-05T04:10:27.676Z,94.49
2023-01-05T04:12:54.757Z,94.55
2023-01-05T04:15:21.564Z,94.73
2023-01-05T04:17:48.434Z,94.79
2023-01-05T04:20:15.291Z,94.83
2023-01-05T04:22:42.135Z,94.68
2023-01-05T04:25:09.675Z,94.75
2023-01-05T04:27:36.485Z,94.62
2023-01-05T04:30:04.163Z,94.73
2023-01-05T04:32:30.983Z,94.72
2023-01-05T04:34:57.774Z,95.15
2023-01-05T04:37:24.553Z,95.20
2023-01-05T04:39:51.373Z,95.76
2023-01-05T04:42:18.198Z,96.49
2023-01-05T04:44:45.209Z,96.00
2023-01-05T04:47:11.988Z,96.59
2023-01-05T04:49:38.775Z,96.24
2023-01-05T04:52:06.469Z,96.19
2023-01-05T04:54:33.270Z,96.35
2023-01-05T04:57:00.090Z,96.38
2023-01-05T04:59:27.116Z,96.07
2023-01-05T05:01:54.075Z,96.23
2023-01-05T05:04:21.192Z,96.23
2023-01-05T05:06:47.987Z,96.62
2023-01-05T05:09:14.764Z,96.50
2023-01-05T05:11:41.602Z,96.68
2023-01-05T05:14:08.643Z,97.07
2023-01-05T05:16:35.418Z,97.17
2023-01-05T05:19:02.565Z,97.61
2023-01-05T05:21:29.407Z,97.45
2023-01-05T05:23:57.209Z,97.38
2023-01-05T05:26:24.122Z,97.50
2023-01-05T05:28:50.892Z,97.97
2023-01-05T05:31:17.780Z,98.47
2023-01-05T05:33:44.637Z,98.35
2023-01-05T05:36:11.512Z,98.40
2023-01-05T05:38:38.694Z,99.17
2023-01-05T05:41:05.621Z,98.78
2023-01-05T05:43:32.469Z,98.71
2023-01-05T05:45:59.218Z,98.59
2023-01-05T05:48:25.999Z,98.72
2023-01-05T05:50:52.796Z,98.48
2023-01-05T05:53:19.910Z,98.73
2023-01-05T05:55:51.100Z,98.67
2023-01-05T05:58:19.156Z,99.40
2023-01-05T06:00:46.674Z,98.93
2023-01-05T06:03:13.764Z,99.25
2023-01-05T06:05:40.852Z,99.13
2023-01-05T06:08:07.792Z,99.41
2023-01-05T06:10:34.586Z,99.77
2023-01-05T06:13:01.540Z,100.00
2023-01-05T06:15:28.335Z,99.75
2023-01-05T06:17:55.108Z,99.93
2023-01-05T06:20:21.931Z,100.00
2023-01-05T06:22:48.753Z,100.00
2023-01-05T06:25:16.002Z,100.00
2023-01-05T06:27:42.984Z,100.00
2023-01-05T06:30:10.457Z,100.00
2023-01-05T06:32:37.496Z,100.00
2023-01-05T06:35:04.626Z,100.00
2023-01-05T06:37:31.452Z,100.00
2023-01-05T06:39:58.623Z,100.00
2023-01-05T06:42:25.581Z,100.00
2023-01-05T06:44:52.498Z,100.00
2023-01-05T06:47:20.159Z,100.00
2023-01-05T06:49:47.220Z,100.00
2023-01-05T06:52:16.593Z,100.00
2023-01-05T06:54:44.766Z,100.00
2023-01-05T06:57:11.826Z,100.00
2023-01-05T06:59:38.909Z,100.00
2023-01-05T07:02:07.300Z,100.00
2023-01-05T07:04:34.210Z,100.00
2023-01-05T07:07:01.356Z,100.00
2023-01-05T07:09:28.249Z,100.00
2023-01-05T07:11:55.068Z,100.00
2023-01-05T07:14:21.854Z,100.00
2023-01-05T07:16:48.698Z,100.00
2023-01-05T07:19:15.538Z,100.00
2023-01-05T07:21:42.719Z,100.00
2023-01-05T07:24:09.932Z,100.00
2023-01-05T07:26:36.721Z,100.00
2023-01-05T07:29:03.656Z,100.00
2023-01-05T07:31:30.545Z,100.00
2023-01-05T07:33:57.480Z,100.00
2023-01-05T07:36:24.475Z,100.00
2023-01-05T07:38:53.287Z,100.00
2023-01-05T07:41:20.142Z,100.00
2023-01-05T07:43:50.482Z,100.00
2023-01-05T07:46:17.422Z,100.00
2023-01-05T07:48:44.344Z,100.00
2023-01-05T07:51:11.960Z,100.00
2023-01-05T07:53:44.428Z,100.00
2023-01-05T07:56:13.458Z,100.00
2023-01-05T07:58:42.065Z,100.00
2023-01-05T08:01:12.811Z,100.00
2023-01-05T08:03:40.027Z,100.00
2023-01-05T08:06:17.439Z,100.00
2023-01-05T08:08:44.709Z,100.00
2023-01-05T08:11:17.471Z,100.00
2023-01-05T08:14:00.310Z,100.00
2023-01-05T08:16:31.411Z,100.00
2023-01-05T08:18:59.377Z,100.00
2023-01-05T08:21:27.242Z,100.00
2023-01-05T08:23:54.403Z,100.00
2023-01-05T08:26:27.916Z,100.00
2023-01-05T08:28:54.753Z,100.00
2023-01-05T08:31:31.613Z,100.00
2023-01-05T08:34:00.506Z,100.00
2023-01-05T08:36:28.232Z,100.00
2023-01-05T08:38:55.946Z,100.00
2023-01-05T08:41:31.041Z,100.00
2023-01-05T08:44:01.027Z,100.00
2023-01-05T08:46:32.855Z,100.00
2023-01-05T08:49:03.147Z,100.00
2023-01-05T08:51:31.125Z,100.00
2023-01-05T08:53:58.810Z,100.00
2023-01-05T08:56:28.714Z,100.00
2023-01-05T08:58:59.363Z,100.00
2023-01-05T09:01:27.270Z,100.00
2023-01-05T09:03:54.289Z,100.00
2023-01-05T09:06:21.194Z,100.00
2023-01-05T09:08:48.728Z,100.00
2023-01-05T09:11:21.375Z,100.00
2023-01-05T09:13:56.049Z,100.00
2023-01-05T09:17:06.009Z,100.00
2023-01-05T09:19:14.293Z,100.00
2023-01-05T09:21:41.427Z,100.00
2023-01-05T09:24:14.130Z,100.00
2023-01-05T09:26:42.607Z,100.00
2023-01-05T09:29:11.523Z,100.00
2023-01-05T09:31:40.035Z,100.00
2023-01-05T09:34:06.893Z,100.00
2023-01-05T09:36:33.700Z,100.00
2023-01-05T09:39:00.620Z,100.00
2023-01-05T09:41:43.391Z,100.00
2023-01-05T09:44:35.401Z,100.00
2023-01-05T09:47:18.349Z,100.00
2023-01-05T09:49:49.512Z,100.00
2023-01-05T09:52:19.605Z,100.00
2023-01-05T09:54:46.456Z,100.00
2023-01-05T09:57:19.172Z,100.00
2023-01-05T10:00:04.783Z,100.00
2023-01-05T10:02:37.465Z,100.00
2023-01-05T10:05:06.342Z,100.00
2023-01-05T10:07:59.073Z,100.00
2023-01-05T10:11:15.167Z,100.00
2023-01-05T10:14:15.379Z,100.00
2023-01-05T10:16:45.444Z,100.00
2023-01-05T10:19:18.449Z,100.00
2023-01-05T10:22:21.522Z,100.00
2023-01-05T10:25:01.878Z,100.00
2023-01-05T10:28:06.341Z,100.00
2023-01-05T10:31:19.684Z,100.00
2023-01-05T10:33:57.906Z,100.00
2023-01-05T10:40:17.865Z,100.00
2023-01-05T10:43:26.529Z,100.00
2023-01-05T10:46:29.325Z,100.00
2023-01-05T10:48:40.609Z,100.00
2023-01-05T10:51:09.884Z,100.00
2023-01-05T10:53:41.502Z,100.00
2023-01-05T10:56:24.473Z,100.00
2023-01-05T10:59:15.402Z,100.00
2023-01-05T11:01:46.172Z,100.00
2023-01-05T11:04:33.391Z,100.00
2023-01-05T11:07:06.964Z,100.00
2023-01-05T11:09:39.508Z,100.00
2023-01-05T11:12:13.528Z,100.00
2023-01-05T11:14:58.399Z,100.00
2023-01-05T11:17:28.553Z,100.00
2023-01-05T11:19:57.912Z,100.00
2023-01-05T11:22:36.222Z,100.00
2023-01-05T11:25:30.534Z,100.00
2023-01-05T11:28:16.037Z,100.00
2023-01-05T11:31:02.415Z,100.00
2023-01-05T11:33:34.354Z,100.00
2023-01-05T11:36:03.063Z,100.00
2023-01-05T11:38:31.719Z,100.00
2023-01-05T11:41:00.966Z,100.00
2023-01-05T11:43:31.830Z,100.00
2023-01-05T11:46:04.883Z,100.00
2023-01-05T11:48:35.594Z,100.00
2023-01-05T11:51:03.289Z,100.00
2023-01-05T11:53:41.063Z,100.00
2023-01-05T11:56:07.904Z,100.00
2023-01-05T11:58:44.540Z,100.00
2023-01-05T12:01:42.375Z,100.00
2023-01-05T12:04:45.715Z,100.00
2023-01-05T12:07:48.890Z,100.00
2023-01-05T12:10:52.602Z,100.00
2023-01-05T12:13:28.167Z,100.00
2023-01-05T12:16:18.348Z,100.00
2023-01-05T12:19:15.222Z,100.00
2023-01-05T12:22:18.801Z,100.00
2023-01-05T12:25:13.193Z,100.00
2023-01-05T12:28:04.878Z,100.00
2023-01-05T12:32:34.258Z,100.00
2023-01-05T12:34:05.106Z,100.00
2023-01-05T12:37:25.101Z,100.00
2023-01-05T12:40:25.511Z,100.00
2023-01-05T12:43:35.587Z,100.00
2023-01-05T12:46:20.345Z,100.00
2023-01-05T12:49:00.682Z,100.00
2023-01-05T12:51:36.059Z,99.93
2023-01-05T12:54:05.862Z,99.81
2023-01-05T12:56:51.726Z,99.39
2023-01-05T12:59:25.467Z,99.60
2023-01-05T13:02:14.873Z,98.92
2023-01-05T13:04:59.970Z,99.00
2023-01-05T13:07:39.497Z,99.54
2023-01-05T13:10:20.203Z,100.00
2023-01-05T13:12:53.951Z,100.00
2023-01-05T13:15:29.544Z,100.00
2023-01-05T13:17:59.472Z,100.00
2023-01-05T13:20:49.156Z,100.00
2023-01-05T13:23:28.463Z,100.00
2023-01-05T13:26:11.067Z,100.00
2023-01-05T13:28:38.096Z,100.00
2023-01-05T13:31:41.078Z,100.00
2023-01-05T13:34:16.901Z,99.95
2023-01-05T13:37:04.689Z,99.83
2023-01-05T13:39:44.223Z,99.63
2023-01-05T13:42:45.723Z,99.35
2023-01-05T13:45:46.788Z,100.00
2023-01-05T13:49:03.351Z,100.00
2023-01-05T13:51:39.529Z,100.00
2023-01-05T13:54:21.197Z,100.00
2023-01-05T13:56:50.626Z,100.00
2023-01-05T13:59:34.986Z,100.00
2023-01-05T14:02:26.815Z,100.00
2023-01-05T14:04:54.043Z,100.00
2023-01-05T14:07:21.467Z,100.00
2023-01-05T14:09:57.563Z,100.00
2023-01-05T14:12:47.308Z,100.00
2023-01-05T14:15:34.859Z,100.00
2023-01-05T14:18:04.117Z,100.00
2023-01-05T14:20:54.442Z,100.00
2023-01-05T14:23:23.288Z,100.00
2023-01-05T14:26:00.693Z,100.00
2023-01-05T14:28:30.468Z,100.00
2023-01-05T14:31:15.631Z,100.00
2023-01-05T14:33:57.667Z,100.00
2023-01-05T14:37:04.738Z,100.00
2023-01-05T14:39:44.375Z,100.00
2023-01-05T14:42:11.463Z,100.00
2023-01-05T14:44:46.059Z,100.00
2023-01-05T14:47:13.441Z,100.00
2023-01-05T14:49:54.140Z,100.00
2023-01-05T14:53:15.666Z,100.00
2023-01-05T14:55:51.482Z,99.99
2023-01-05T14:58:38.479Z,100.00
2023-01-05T15:01:19.810Z,99.94
2023-01-05T15:04:05.850Z,100.00
2023-01-05T15:06:58.022Z,99.57
2023-01-05T15:09:58.779Z,99.86
2023-01-05T15:12:36.387Z,99.84
2023-01-05T15:15:24.921Z,99.53
2023-01-05T15:18:25.363Z,99.41
2023-01-05T15:21:07.305Z,99.45
2023-01-05T15:24:05.212Z,99.21
2023-01-05T15:26:57.000Z,99.08
2023-01-05T15:29:46.466Z,98.65
2023-01-05T15:32:22.412Z,97.77
2023-01-05T15:35:05.113Z,97.73
2023-01-05T15:37:40.991Z,97.52
2023-01-05T15:40:29.340Z,97.32
2023-01-05T15:43:04.383Z,97.24
2023-01-05T15:45:34.495Z,97.81
2023-01-05T15:48:19.332Z,97.51
2023-01-05T15:50:53.546Z,97.67
2023-01-05T15:53:33.156Z,97.40
2023-01-05T15:56:01.290Z,97.65
2023-01-05T15:58:32.143Z,97.66
2023-01-05T16:01:10.677Z,98.66
2023-01-05T16:03:40.228Z,98.60
2023-01-05T16:06:15.888Z,98.88
2023-01-05T16:08:47.299Z,99.18
2023-01-05T16:11:34.152Z,99.41
2023-01-05T16:14:28.985Z,99.22
2023-01-05T16:17:15.517Z,99.39
2023-01-05T16:19:49.074Z,100.00
2023-01-05T16:22:26.762Z,100.00
2023-01-05T16:25:20.002Z,100.00
2023-01-05T16:27:51.025Z,100.00
2023-01-05T16:30:34.720Z,100.00
2023-01-05T16:33:36.258Z,100.00
2023-01-05T16:36:21.236Z,100.00
2023-01-05T16:38:49.265Z,100.00
2023-01-05T16:41:26.498Z,100.00
2023-01-05T16:44:00.138Z,100.00
2023-01-05T16:46:31.220Z,100.00
2023-01-05T16:49:41.222Z,100.00
2023-01-05T16:52:24.234Z,100.00
2023-01-05T16:55:29.242Z,100.00
2023-01-05T16:57:58.210Z,100.00
2023-01-05T17:00:32.747Z,100.00
2023-01-05T17:03:23.699Z,100.00
2023-01-05T17:05:55.115Z,100.00
2023-01-05T17:08:28.316Z,100.00
2023-01-05T17:10:57.066Z,100.00
2023-01-05T17:13:33.271Z,100.00
2023-01-05T17:16:00.100Z,100.00
2023-01-05T17:18:29.162Z,100.00
2023-01-05T17:20:58.731Z,100.00
2023-01-05T17:23:47.327Z,100.00
2023-01-05T17:26:28.205Z,100.00
2023-01-05T17:28:59.643Z,100.00
2023-01-05T17:31:26.941Z,100.00
2023-01-05T17:33:54.020Z,100.00
2023-01-05T17:36:26.963Z,100.00
2023-01-05T17:38:53.748Z,100.00
2023-01-05T17:41:20.533Z,100.00
2023-01-05T17:43:48.396Z,100.00
2023-01-05T17:46:24.901Z,100.00
2023-01-05T17:48:51.747Z,100.00
2023-01-05T17:51:19.105Z,100.00
2023-01-05T17:53:46.001Z,100.00
2023-01-05T17:56:13.040Z,100.00
2023-01-05T17:58:39.866Z,100.00
2023-01-05T18:01:07.015Z,100.00
2023-01-05T18:03:33.823Z,100.00
2023-01-05T18:06:01.798Z,100.00
2023-01-05T18:08:29.429Z,100.00
2023-01-05T18:10:56.565Z,100.00
2023-01-05T18:13:24.535Z,100.00
2023-01-05T18:15:53.303Z,100.00
2023-01-05T18:18:21.643Z,100.00
2023-01-05T18:20:52.586Z,100.00
2023-01-05T18:23:20.799Z,100.00
2023-01-05T18:25:47.888Z,100.00
2023-01-05T18:28:15.032Z,100.00
2023-01-05T18:30:42.744Z,100.00
2023-01-05T18:38:24.604Z,100.00
2023-01-05T18:40:51.493Z,100.00
2023-01-05T18:43:18.275Z,100.00
2023-01-05T18:45:45.390Z,100.00
2023-01-05T18:48:12.194Z,100.00
2023-01-05T18:50:44.795Z,100.00
2023-01-05T18:53:12.607Z,100.00
2023-01-05T18:55:43.211Z,100.00
2023-01-05T18:58:11.569Z,100.00
2023-01-05T19:00:47.012Z,100.00
2023-01-05T19:03:14.142Z,100.00
2023-01-05T19:05:43.283Z,100.00
2023-01-05T19:08:12.401Z,100.00
2023-01-05T19:10:39.796Z,100.00
2023-01-05T19:13:07.090Z,100.00
2023-01-05T19:15:36.069Z,100.00
2023-01-05T19:18:03.218Z,100.00
2023-01-05T19:20:31.845Z,100.00
2023-01-05T19:23:00.194Z,100.00
2023-01-05T19:25:27.785Z,100.00
2023-01-05T19:27:54.744Z,100.00
2023-01-05T19:30:23.652Z,100.00
2023-01-05T19:32:50.778Z,100.00
2023-01-05T19:35:17.951Z,100.00
2023-01-05T19:37:45.441Z,100.00
2023-01-05T19:40:13.393Z,100.00
2023-01-05T19:42:40.469Z,100.00
2023-01-05T19:45:09.781Z,100.00
2023-01-05T19:47:40.754Z,100.00
2023-01-05T19:50:10.387Z,100.00
2023-01-05T19:52:38.064Z,100.00
2023-01-05T19:55:06.669Z,100.00
2023-01-05T19:57:33.940Z,100.00
2023-01-05T20:00:00.732Z,100.00
2023-01-05T20:02:27.659Z,100.00
2023-01-05T20:04:54.621Z,100.00
2023-01-05T20:07:22.454Z,100.00
2023-01-05T20:09:51.536Z,100.00
2023-01-05T20:12:18.545Z,100.00
2023-01-05T20:14:45.409Z,100.00
2023-01-05T20:17:12.776Z,100.00
2023-01-05T20:19:40.240Z,100.00
2023-01-05T20:22:14.050Z,100.00
2023-01-05T20:24:42.311Z,100.00
2023-01-05T20:27:13.326Z,100.00
2023-01-05T20:29:40.994Z,100.00
2023-01-05T20:32:21.651Z,100.00
2023-01-05T20:34:59.865Z,100.00
2023-01-05T20:37:29.863Z,100.00
2023-01-05T20:39:59.453Z,100.00
2023-01-05T20:42:30.826Z,100.00
2023-01-05T20:44:57.740Z,100.00
2023-01-05T20:47:24.520Z,100.00
2023-01-05T20:49:51.951Z,100.00
2023-01-05T20:52:18.826Z,100.00
2023-01-05T20:54:46.449Z,100.00
2023-01-05T20:57:13.407Z,100.00
2023-01-05T20:59:41.098Z,100.00
2023-01-05T21:02:22.561Z,100.00
2023-01-05T21:04:51.678Z,100.00
2023-01-05T21:07:19.055Z,100.00
2023-01-05T21:09:45.905Z,100.00
2023-01-05T21:12:12.920Z,100.00
2023-01-05T21:14:40.192Z,100.00
2023-01-05T21:17:07.451Z,100.00
2023-01-05T21:19:34.245Z,100.00
2023-01-05T21:22:01.450Z,100.00
2023-01-05T21:24:28.426Z,100.00
2023-01-05T21:26:56.122Z,100.00
2023-01-05T21:29:26.217Z,100.00
2023-01-05T21:31:56.679Z,100.00
2023-01-05T21:34:24.279Z,100.00
2023-01-05T21:36:51.353Z,100.00
2023-01-05T21:39:22.624Z,100.00
2023-01-05T21:42:09.717Z,100.00
2023-01-05T21:44:37.345Z,100.00
2023-01-05T21:47:06.823Z,100.00
2023-01-05T21:49:35.062Z,100.00
2023-01-05T21:52:20.521Z,100.00
2023-01-05T21:55:05.591Z,100.00
2023-01-05T21:57:32.481Z,100.00
2023-01-05T21:59:59.352Z,100.00
2023-01-05T22:02:26.226Z,100.00
2023-01-05T22:04:53.050Z,100.00
2023-01-05T22:07:20.278Z,100.00
2023-01-05T22:09:47.101Z,100.00
2023-01-05T22:12:13.913Z,100.00
2023-01-05T22:14:40.902Z,100.00
2023-01-05T22:17:08.880Z,100.00
2023-01-05T22:19:36.607Z,100.00
2023-01-05T22:22:04.072Z,100.00
2023-01-05T22:24:31.226Z,100.00
2023-01-05T22:26:58.175Z,100.00
2023-01-05T22:29:25.271Z,100.00
2023-01-05T22:31:52.827Z,100.00
2023-01-05T22:34:19.963Z,100.00
2023-01-05T22:36:47.162Z,100.00
2023-01-05T22:39:14.469Z,100.00
2023-01-05T22:41:41.669Z,100.00
2023-01-05T22:44:09.235Z,100.00
2023-01-05T22:46:36.144Z,100.00
2023-01-05T22:49:03.725Z,100.00
2023-01-05T22:51:37.224Z,100.00
2023-01-05T22:54:05.215Z,100.00
2023-01-05T22:56:33.735Z,100.00
2023-01-05T22:59:01.686Z,100.00
2023-01-05T23:01:35.013Z,100.00
2023-01-05T23:04:04.241Z,100.00
2023-01-05T23:06:32.257Z,100.00
2023-01-05T23:08:59.634Z,100.00
2023-01-05T23:11:33.557Z,100.00
2023-01-05T23:14:02.840Z,100.00
2023-01-05T23:16:30.114Z,100.00
2023-01-05T23:18:57.040Z,100.00
2023-01-05T23:21:26.843Z,100.00
2023-01-05T23:23:56.390Z,100.00
2023-01-05T23:26:25.981Z,100.00
2023-01-05T23:28:53.456Z,100.00
2023-01-05T23:31:21.047Z,100.00
2023-01-05T23:33:48.684Z,100.00
2023-01-05T23:36:17.991Z,100.00
2023-01-05T23:38:46.063Z,100.00
2023-01-05T23:41:15.579Z,100.00
2023-01-05T23:43:45.366Z,100.00
2023-01-05T23:46:20.515Z,100.00
2023-01-05T23:48:49.189Z,100.00
2023-01-05T23:51:17.270Z,100.00
2023-01-05T23:53:47.459Z,99.77
2023-01-05T23:56:20.961Z,100.00
2023-01-05T23:58:49.457Z,99.71
